createdAt,value
2023-04-25T00:00:51.296Z,99298.65
2023-04-25T00:03:19.821Z,99295.94
2023-04-25T00:05:46.672Z,99293.24
2023-04-25T00:08:13.364Z,99293.95
2023-04-25T00:10:39.929Z,99291.94
2023-04-25T00:13:07.290Z,99287.44
2023-04-25T00:15:33.866Z,99285.94
2023-04-25T00:18:00.771Z,99285.05
2023-04-25T00:20:27.507Z,99276.40
2023-04-25T00:22:54.529Z,99275.39
2023-04-25T00:25:21.252Z,99276.53
2023-04-25T00:27:47.885Z,99273.80
2023-04-25T00:30:15.047Z,99272.51
2023-04-25T00:32:42.071Z,99272.02
2023-04-25T00:35:08.702Z,99269.88
2023-04-25T00:37:35.251Z,99268.48
2023-04-25T00:40:01.802Z,99262.80
2023-04-25T00:42:28.463Z,99261.75
2023-04-25T00:44:55.390Z,99256.47
2023-04-25T00:47:21.983Z,99250.70
2023-04-25T00:49:48.619Z,99252.21
2023-04-25T00:52:15.580Z,99252.64
2023-04-25T00:54:42.179Z,99251.13
2023-04-25T00:57:08.718Z,99250.52
2023-04-25T00:59:35.574Z,99254.09
2023-04-25T01:02:02.651Z,99252.27
2023-04-25T01:04:29.909Z,99253.83
2023-04-25T01:06:56.881Z,99250.55
2023-04-25T01:09:23.533Z,99249.33
2023-04-25T01:11:50.475Z,99250.11
2023-04-25T01:14:17.258Z,99244.58
2023-04-25T01:16:43.957Z,99243.06
2023-04-25T01:19:14.125Z,99243.55
2023-04-25T01:21:41.086Z,99245.06
2023-04-25T01:24:07.874Z,99245.19
2023-04-25T01:26:34.669Z,99246.60
2023-04-25T01:29:01.470Z,99246.11
2023-04-25T01:31:28.724Z,99240.23
2023-04-25T01:33:55.523Z,99239.38
2023-04-25T01:36:22.081Z,99239.08
2023-04-25T01:38:48.665Z,99236.38
2023-04-25T01:41:15.716Z,99232.52
2023-04-25T01:43:42.372Z,99232.39
2023-04-25T01:46:08.964Z,99230.59
2023-04-25T01:48:35.670Z,99227.50
2023-04-25T01:51:02.203Z,99227.78
2023-04-25T01:53:29.569Z,99229.72
2023-04-25T01:55:56.749Z,99231.54
2023-04-25T01:58:25.111Z,99231.20
2023-04-25T02:01:05.773Z,99231.83
2023-04-25T02:03:36.936Z,99226.61
2023-04-25T02:06:06.419Z,99221.83
2023-04-25T02:08:35.933Z,99222.55
2023-04-25T02:11:04.357Z,99223.54
2023-04-25T02:13:37.985Z,99226.54
2023-04-25T02:16:17.169Z,99226.20
2023-04-25T02:18:44.119Z,99223.89
2023-04-25T02:21:11.012Z,99222.92
2023-04-25T02:23:37.762Z,99226.76
2023-04-25T02:26:04.343Z,99223.04
2023-04-25T02:28:31.734Z,99225.20
2023-04-25T02:30:58.546Z,99220.34
2023-04-25T02:33:25.511Z,99223.35
2023-04-25T02:35:52.182Z,99216.88
2023-04-25T02:38:22.188Z,99218.98
2023-04-25T02:40:48.804Z,99216.00
2023-04-25T02:43:15.549Z,99216.70
2023-04-25T02:45:42.084Z,99212.61
2023-04-25T02:48:08.842Z,99213.15
2023-04-25T02:50:35.601Z,99213.06
2023-04-25T02:53:02.158Z,99212.77
2023-04-25T02:55:34.104Z,99216.05
2023-04-25T02:58:01.559Z,99213.40
2023-04-25T03:00:36.945Z,99218.45
2023-04-25T03:03:03.696Z,99217.63
2023-04-25T03:05:30.690Z,99223.22
2023-04-25T03:07:57.237Z,99222.15
2023-04-25T03:10:24.107Z,99224.18
2023-04-25T03:12:51.093Z,99223.27
2023-04-25T03:15:17.715Z,99224.35
2023-04-25T03:17:44.352Z,99224.88
2023-04-25T03:20:11.465Z,99225.45
2023-04-25T03:22:38.313Z,99224.70
2023-04-25T03:25:05.979Z,99224.22
2023-04-25T03:27:32.548Z,99223.18
2023-04-25T03:29:59.225Z,99224.12
2023-04-25T03:32:26.078Z,99222.33
2023-04-25T03:34:52.718Z,99227.81
2023-04-25T03:37:19.377Z,99226.87
2023-04-25T03:39:46.137Z,99230.13
2023-04-25T03:42:12.882Z,99228.05
2023-04-25T03:44:39.457Z,99229.20
2023-04-25T03:47:06.210Z,99224.51
2023-04-25T03:49:33.789Z,99224.45
2023-04-25T03:52:02.044Z,99219.61
2023-04-25T03:54:31.624Z,99220.25
2023-04-25T03:57:03.966Z,99219.77
2023-04-25T03:59:32.307Z,99217.40
2023-04-25T04:01:58.923Z,99218.91
2023-04-25T04:04:26.480Z,99219.35
2023-04-25T04:06:55.570Z,99219.36
2023-04-25T04:09:26.176Z,99220.10
2023-04-25T04:11:53.679Z,99220.56
2023-04-25T04:14:20.621Z,99216.44
2023-04-25T04:16:47.670Z,99218.19
2023-04-25T04:19:14.360Z,99214.55
2023-04-25T04:21:45.160Z,99213.21
2023-04-25T04:24:12.285Z,99210.27
2023-04-25T04:26:51.821Z,99210.30
2023-04-25T04:29:36.016Z,99212.83
2023-04-25T04:32:10.028Z,99217.15
2023-04-25T04:34:37.067Z,99212.78
2023-04-25T04:37:03.929Z,99209.88
2023-04-25T04:39:30.737Z,99210.73
2023-04-25T04:42:09.633Z,99213.13
2023-04-25T04:45:05.518Z,99213.40
2023-04-25T04:47:51.091Z,99210.60
2023-04-25T04:50:17.803Z,99207.09
2023-04-25T04:53:02.942Z,99203.73
2023-04-25T04:55:48.119Z,99204.74
2023-04-25T04:58:50.139Z,99204.11
2023-04-25T05:01:38.674Z,99204.30
2023-04-25T05:04:34.703Z,99201.11
2023-04-25T05:07:27.801Z,99195.62
2023-04-25T05:10:12.933Z,99198.73
2023-04-25T05:12:58.022Z,99195.83
2023-04-25T05:15:44.528Z,99195.86
2023-04-25T05:18:23.590Z,99199.11
2023-04-25T05:21:14.733Z,99202.94
2023-04-25T05:23:48.112Z,99197.15
2023-04-25T05:26:33.729Z,99196.02
2023-04-25T05:29:18.697Z,99189.92
2023-04-25T05:32:00.384Z,99187.80
2023-04-25T05:34:27.061Z,99184.67
2023-04-25T05:36:56.936Z,99183.95
2023-04-25T05:39:24.581Z,99183.33
2023-04-25T05:42:14.330Z,99184.31
2023-04-25T05:44:46.633Z,99185.15
2023-04-25T05:47:36.961Z,99184.53
2023-04-25T05:50:08.346Z,99184.33
2023-04-25T05:52:48.742Z,99179.14
2023-04-25T05:55:25.052Z,99177.41
2023-04-25T05:57:51.761Z,99176.08
2023-04-25T06:00:20.017Z,99178.42
2023-04-25T06:02:47.776Z,99176.48
2023-04-25T06:05:14.864Z,99174.09
2023-04-25T06:07:41.903Z,99172.20
2023-04-25T06:10:09.087Z,99176.75
2023-04-25T06:12:35.823Z,99176.55
2023-04-25T06:15:08.141Z,99178.11
2023-04-25T06:17:40.676Z,99175.02
2023-04-25T06:20:07.929Z,99171.30
2023-04-25T06:22:34.478Z,99168.98
2023-04-25T06:25:02.008Z,99169.33
2023-04-25T06:27:29.053Z,99163.85
2023-04-25T06:29:56.456Z,99161.45
2023-04-25T06:32:23.051Z,99161.66
2023-04-25T06:34:49.728Z,99160.28
2023-04-25T06:37:16.951Z,99160.22
2023-04-25T06:39:43.578Z,99160.34
2023-04-25T06:42:11.046Z,99156.93
2023-04-25T06:44:41.527Z,99154.61
2023-04-25T06:47:08.770Z,99153.02
2023-04-25T06:49:35.634Z,99153.36
2023-04-25T06:52:02.939Z,99148.98
2023-04-25T06:54:30.741Z,99150.75
2023-04-25T06:57:03.830Z,99151.05
2023-04-25T06:59:32.228Z,99147.00
2023-04-25T07:01:59.273Z,99148.38
2023-04-25T07:04:26.987Z,99145.05
2023-04-25T07:06:56.958Z,99142.90
2023-04-25T07:09:29.255Z,99142.96
2023-04-25T07:11:55.877Z,99144.22
2023-04-25T07:14:22.480Z,99140.38
2023-04-25T07:16:49.183Z,99139.96
2023-04-25T07:19:16.041Z,99137.06
2023-04-25T07:21:42.708Z,99140.59
2023-04-25T07:24:09.405Z,99143.79
2023-04-25T07:26:39.225Z,99138.44
2023-04-25T07:29:23.985Z,99142.81
2023-04-25T07:31:51.010Z,99139.70
2023-04-25T07:34:17.755Z,99135.11
2023-04-25T07:36:44.522Z,99136.53
2023-04-25T07:39:11.851Z,99135.05
2023-04-25T07:41:38.701Z,99136.39
2023-04-25T07:44:05.898Z,99138.45
2023-04-25T07:46:32.924Z,99136.05
2023-04-25T07:49:00.053Z,99133.95
2023-04-25T07:51:27.026Z,99135.19
2023-04-25T07:53:53.929Z,99133.62
2023-04-25T07:56:21.248Z,99126.81
2023-04-25T07:58:48.227Z,99128.43
2023-04-25T08:01:15.466Z,99126.40
2023-04-25T08:03:58.017Z,99122.91
2023-04-25T08:06:45.070Z,99122.63
2023-04-25T08:09:19.064Z,99123.05
2023-04-25T08:11:46.741Z,99116.86
2023-04-25T08:14:15.412Z,99121.77
2023-04-25T08:16:43.238Z,99114.79
2023-04-25T08:19:11.205Z,99116.05
2023-04-25T08:21:38.020Z,99118.56
2023-04-25T08:24:06.997Z,99118.79
2023-04-25T08:26:38.387Z,99120.52
2023-04-25T08:29:06.603Z,99113.73
2023-04-25T08:31:33.733Z,99114.11
2023-04-25T08:34:01.686Z,99110.67
2023-04-25T08:36:39.423Z,99113.02
2023-04-25T08:39:17.195Z,99106.23
2023-04-25T08:41:57.009Z,99106.75
2023-04-25T08:44:23.558Z,99104.31
2023-04-25T08:46:53.347Z,99103.31
2023-04-25T08:49:27.863Z,99104.45
2023-04-25T08:51:54.462Z,99101.40
2023-04-25T08:54:34.188Z,99092.54
2023-04-25T08:57:03.006Z,99097.70
2023-04-25T08:59:29.656Z,99096.83
2023-04-25T09:01:56.614Z,99094.80
2023-04-25T09:04:23.685Z,99088.75
2023-04-25T09:06:50.389Z,99092.73
2023-04-25T09:09:17.711Z,99090.98
2023-04-25T09:11:44.738Z,99086.09
2023-04-25T09:14:15.642Z,99086.59
2023-04-25T09:17:03.726Z,99086.64
2023-04-25T09:19:42.004Z,99081.49
2023-04-25T09:22:19.396Z,99079.63
2023-04-25T09:24:51.062Z,99083.21
2023-04-25T09:27:23.862Z,99086.10
2023-04-25T09:30:02.398Z,99086.09
2023-04-25T09:32:37.397Z,99079.21
2023-04-25T09:35:05.610Z,99077.08
2023-04-25T09:37:32.791Z,99074.47
2023-04-25T09:40:06.885Z,99069.77
2023-04-25T09:42:35.877Z,99070.02
2023-04-25T09:45:03.327Z,99067.52
2023-04-25T09:47:31.962Z,99070.14
2023-04-25T09:50:00.550Z,99066.44
2023-04-25T09:52:27.585Z,99064.63
2023-04-25T09:55:00.359Z,99053.41
2023-04-25T09:57:31.928Z,99047.22
2023-04-25T09:59:58.733Z,99049.34
2023-04-25T10:02:26.689Z,99044.33
2023-04-25T10:04:56.801Z,99035.43
2023-04-25T10:07:44.033Z,99036.45
2023-04-25T10:10:16.266Z,99041.52
2023-04-25T10:12:44.556Z,99043.60
2023-04-25T10:15:11.505Z,99037.59
2023-04-25T10:17:38.717Z,99033.89
2023-04-25T10:20:11.836Z,99033.02
2023-04-25T10:22:49.110Z,99027.75
2023-04-25T10:25:15.873Z,99023.30
2023-04-25T10:27:42.519Z,99023.88
2023-04-25T10:30:12.282Z,99018.60
2023-04-25T10:32:39.684Z,99021.61
2023-04-25T10:35:16.775Z,99014.66
2023-04-25T10:37:59.514Z,99011.39
2023-04-25T10:40:26.702Z,99012.96
2023-04-25T10:42:55.309Z,99010.43
2023-04-25T10:45:21.986Z,99019.90
2023-04-25T10:47:48.953Z,99017.67
2023-04-25T10:50:17.189Z,99018.15
2023-04-25T10:52:44.079Z,99015.67
2023-04-25T10:55:10.817Z,99009.35
2023-04-25T10:57:38.317Z,99008.11
2023-04-25T11:00:11.961Z,99000.33
2023-04-25T11:02:39.964Z,99001.30
2023-04-25T11:05:07.757Z,98992.87
2023-04-25T11:07:45.998Z,98993.45
2023-04-25T11:10:14.737Z,98995.70
2023-04-25T11:12:41.345Z,98989.46
2023-04-25T11:15:08.526Z,98984.86
2023-04-25T11:17:35.708Z,98985.05
2023-04-25T11:20:02.456Z,98989.32
2023-04-25T11:22:29.536Z,98985.27
2023-04-25T11:24:56.110Z,98981.25
2023-04-25T11:27:22.781Z,98975.48
2023-04-25T11:29:49.523Z,98972.95
2023-04-25T11:32:17.018Z,98972.34
2023-04-25T11:34:44.839Z,98969.13
2023-04-25T11:37:13.507Z,98968.02
2023-04-25T11:39:43.523Z,98968.42
2023-04-25T11:42:13.479Z,98968.38
2023-04-25T11:44:41.734Z,98965.32
2023-04-25T11:47:08.364Z,98965.32
2023-04-25T11:49:36.270Z,98955.02
2023-04-25T11:52:02.962Z,98950.56
2023-04-25T11:54:29.525Z,98951.68
2023-04-25T11:56:56.087Z,98949.10
2023-04-25T11:59:26.652Z,98951.60
2023-04-25T12:01:53.470Z,98944.96
2023-04-25T12:04:21.557Z,98935.90
2023-04-25T12:06:49.546Z,98941.71
2023-04-25T12:09:18.873Z,98939.85
2023-04-25T12:11:45.939Z,98938.34
2023-04-25T12:14:13.089Z,98937.16
2023-04-25T12:16:43.685Z,98939.02
2023-04-25T12:19:11.040Z,98936.91
2023-04-25T12:21:50.529Z,98938.18
2023-04-25T12:24:26.767Z,98932.59
2023-04-25T12:27:11.623Z,98930.42
2023-04-25T12:29:49.246Z,98925.67
2023-04-25T12:32:16.600Z,98921.70
2023-04-25T12:34:43.522Z,98916.27
2023-04-25T12:37:10.403Z,98917.38
2023-04-25T12:39:37.009Z,98909.51
2023-04-25T12:42:06.146Z,98908.13
2023-04-25T12:44:35.004Z,98903.94
2023-04-25T12:47:01.776Z,98896.81
2023-04-25T12:49:28.456Z,98896.00
2023-04-25T12:52:20.333Z,98887.71
2023-04-25T12:54:47.079Z,98886.77
2023-04-25T12:57:13.622Z,98884.70
2023-04-25T12:59:40.241Z,98883.94
2023-04-25T13:02:07.083Z,98879.04
2023-04-25T13:04:37.135Z,98872.89
2023-04-25T13:07:04.761Z,98869.79
2023-04-25T13:09:31.464Z,98870.00
2023-04-25T13:11:59.407Z,98869.34
2023-04-25T13:14:26.312Z,98867.46
2023-04-25T13:16:52.992Z,98866.25
2023-04-25T13:19:23.478Z,98861.69
2023-04-25T13:21:51.212Z,98859.87
2023-04-25T13:24:17.935Z,98862.13
2023-04-25T13:26:44.627Z,98858.77
2023-04-25T13:29:11.170Z,98855.29
2023-04-25T13:31:37.911Z,98853.34
2023-04-25T13:34:04.761Z,98848.01
2023-04-25T13:36:31.498Z,98841.46
2023-04-25T13:38:58.518Z,98836.52
2023-04-25T13:41:25.163Z,98838.09
2023-04-25T13:43:52.554Z,98832.48
2023-04-25T13:48:52.798Z,98830.30
2023-04-25T13:51:22.493Z,98828.90
2023-04-25T13:53:49.445Z,98825.82
2023-04-25T13:56:16.433Z,98824.94
2023-04-25T13:58:43.224Z,98826.99
2023-04-25T14:01:09.895Z,98820.42
2023-04-25T14:03:36.933Z,98818.32
2023-04-25T14:06:03.795Z,98816.91
2023-04-25T14:08:30.557Z,98822.05
2023-04-25T14:10:57.195Z,98813.94
2023-04-25T14:13:24.455Z,98815.57
2023-04-25T14:15:51.613Z,98812.94
2023-04-25T14:18:18.404Z,98811.37
2023-04-25T14:20:45.298Z,98805.09
2023-04-25T14:23:11.920Z,98809.56
2023-04-25T14:25:38.972Z,98812.62
2023-04-25T14:28:06.147Z,98808.98
2023-04-25T14:30:32.876Z,98810.30
2023-04-25T14:32:59.429Z,98806.36
2023-04-25T14:35:26.215Z,98809.21
2023-04-25T14:37:52.934Z,98804.21
2023-04-25T14:40:23.291Z,98798.38
2023-04-25T14:42:50.787Z,98792.65
2023-04-25T14:45:17.870Z,98793.30
2023-04-25T14:47:44.567Z,98792.27
2023-04-25T14:50:11.508Z,98793.55
2023-04-25T14:52:38.269Z,98793.06
2023-04-25T14:55:06.460Z,98788.77
2023-04-25T14:57:33.485Z,98788.53
2023-04-25T15:00:00.169Z,98787.59
2023-04-25T15:02:27.595Z,98785.65
2023-04-25T15:04:54.675Z,98782.50
2023-04-25T15:07:21.583Z,98784.89
2023-04-25T15:09:49.054Z,98783.60
2023-04-25T15:12:15.645Z,98783.20
2023-04-25T15:14:42.260Z,98781.55
2023-04-25T15:17:08.831Z,98773.50
2023-04-25T15:19:35.558Z,98770.83
2023-04-25T15:22:02.473Z,98772.96
2023-04-25T15:24:29.112Z,98769.86
2023-04-25T15:26:55.747Z,98772.23
2023-04-25T15:29:22.676Z,98769.75
2023-04-25T15:31:49.345Z,98765.16
2023-04-25T15:34:16.007Z,98770.44
2023-04-25T15:36:42.679Z,98766.02
2023-04-25T15:39:09.262Z,98764.77
2023-04-25T15:41:36.795Z,98760.58
2023-04-25T15:44:03.384Z,98763.08
2023-04-25T15:46:33.194Z,98759.92
2023-04-25T15:48:59.978Z,98754.79
2023-04-25T15:51:26.959Z,98748.17
2023-04-25T15:53:53.786Z,98751.56
2023-04-25T15:56:21.474Z,98753.96
2023-04-25T15:58:48.293Z,98749.68
2023-04-25T16:01:15.151Z,98747.23
2023-04-25T16:03:42.111Z,98745.86
2023-04-25T16:06:08.744Z,98741.74
2023-04-25T16:08:36.180Z,98743.14
2023-04-25T16:11:03.472Z,98745.27
2023-04-25T16:13:30.251Z,98745.77
2023-04-25T16:15:57.739Z,98743.58
2023-04-25T16:18:24.556Z,98744.29
2023-04-25T16:20:51.246Z,98743.10
2023-04-25T16:23:18.570Z,98740.73
2023-04-25T16:25:45.419Z,98747.20
2023-04-25T16:28:12.014Z,98747.03
2023-04-25T16:30:38.613Z,98747.23
2023-04-25T16:33:05.279Z,98747.98
2023-04-25T16:35:32.568Z,98745.38
2023-04-25T16:37:59.200Z,98744.48
2023-04-25T16:40:26.616Z,98742.58
2023-04-25T16:42:53.323Z,98743.20
2023-04-25T16:45:20.518Z,98745.31
2023-04-25T16:47:47.158Z,98742.29
2023-04-25T16:50:14.554Z,98746.38
2023-04-25T16:52:42.468Z,98746.67
2023-04-25T16:55:10.963Z,98744.23
2023-04-25T16:57:37.723Z,98751.64
2023-04-25T17:00:05.743Z,98746.39
2023-04-25T17:02:32.795Z,98750.10
2023-04-25T17:04:59.656Z,98748.52
2023-04-25T17:07:26.789Z,98747.77
2023-04-25T17:09:53.380Z,98750.88
2023-04-25T17:12:21.472Z,98749.92
2023-04-25T17:14:49.130Z,98751.91
2023-04-25T17:17:15.675Z,98753.48
2023-04-25T17:19:42.519Z,98752.73
2023-04-25T17:22:09.115Z,98753.40
2023-04-25T17:24:35.725Z,98758.10
2023-04-25T17:27:02.434Z,98759.55
2023-04-25T17:29:29.041Z,98761.52
2023-04-25T17:31:57.141Z,98758.20
2023-04-25T17:34:23.774Z,98762.98
2023-04-25T17:36:50.376Z,98761.42
2023-04-25T17:39:17.624Z,98762.54
2023-04-25T17:41:44.837Z,98766.85
2023-04-25T17:44:11.785Z,98767.88
2023-04-25T17:46:38.533Z,98768.98
2023-04-25T17:49:05.215Z,98776.27
2023-04-25T17:51:31.823Z,98773.84
2023-04-25T17:53:58.655Z,98776.77
2023-04-25T17:56:27.548Z,98776.65
2023-04-25T17:58:54.937Z,98778.21
2023-04-25T18:01:21.917Z,98776.58
2023-04-25T18:03:50.124Z,98778.46
2023-04-25T18:06:17.279Z,98782.35
2023-04-25T18:08:44.869Z,98781.36
2023-04-25T18:11:12.033Z,98781.15
2023-04-25T18:13:39.412Z,98781.83
2023-04-25T18:16:06.745Z,98781.36
2023-04-25T18:18:35.943Z,98784.14
2023-04-25T18:21:05.405Z,98786.20
2023-04-25T18:23:34.287Z,98789.40
2023-04-25T18:26:04.763Z,98791.72
2023-04-25T18:28:31.460Z,98789.51
2023-04-25T18:30:58.078Z,98789.55
2023-04-25T18:33:25.320Z,98790.59
2023-04-25T18:38:34.979Z,98786.02
2023-04-25T18:41:18.417Z,98788.45
2023-04-25T18:43:50.815Z,98791.36
2023-04-25T18:46:22.184Z,98793.21
2023-04-25T18:48:49.644Z,98789.15
2023-04-25T18:51:16.902Z,98794.98
2023-04-25T18:53:43.476Z,98794.98
2023-04-25T18:56:10.146Z,98793.59
2023-04-25T18:58:36.964Z,98798.62
2023-04-25T19:01:04.790Z,98798.91
2023-04-25T19:03:31.887Z,98796.92
2023-04-25T19:05:58.753Z,98792.14
2023-04-25T19:08:26.824Z,98792.81
2023-04-25T19:10:53.746Z,98792.93
2023-04-25T19:13:20.675Z,98792.16
2023-04-25T19:15:47.754Z,98792.11
2023-04-25T19:18:18.051Z,98790.66
2023-04-25T19:20:44.830Z,98789.88
2023-04-25T19:23:11.552Z,98788.73
2023-04-25T19:25:38.124Z,98783.96
2023-04-25T19:28:05.042Z,98784.27
2023-04-25T19:30:31.814Z,98784.44
2023-04-25T19:32:58.490Z,98783.48
2023-04-25T19:35:25.527Z,98784.71
2023-04-25T19:37:52.380Z,98783.89
2023-04-25T19:40:20.272Z,98785.55
2023-04-25T19:42:47.332Z,98785.65
2023-04-25T19:45:13.984Z,98786.75
2023-04-25T19:47:41.097Z,98784.43
2023-04-25T19:50:08.587Z,98783.67
2023-04-25T19:52:35.797Z,98782.30
2023-04-25T19:55:04.921Z,98789.11
2023-04-25T19:57:35.054Z,98786.05
2023-04-25T20:00:02.011Z,98782.19
2023-04-25T20:02:38.943Z,98787.41
2023-04-25T20:05:06.138Z,98787.80
2023-04-25T20:07:33.029Z,98784.91
2023-04-25T20:10:01.609Z,98786.13
2023-04-25T20:12:28.171Z,98789.11
2023-04-25T20:14:54.699Z,98789.34
2023-04-25T20:17:21.395Z,98792.08
2023-04-25T20:19:47.923Z,98793.22
2023-04-25T20:22:14.475Z,98796.96
2023-04-25T20:24:41.024Z,98797.71
2023-04-25T20:27:07.691Z,98801.67
2023-04-25T20:29:34.712Z,98803.56
2023-04-25T20:32:03.202Z,98805.63
2023-04-25T20:34:31.640Z,98809.04
2023-04-25T20:36:58.227Z,98806.60
2023-04-25T20:39:25.039Z,98807.62
2023-04-25T20:41:51.684Z,98811.72
2023-04-25T20:44:20.595Z,98811.60
2023-04-25T20:46:48.033Z,98818.61
2023-04-25T20:49:15.310Z,98818.30
2023-04-25T20:51:42.286Z,98814.09
2023-04-25T20:54:09.709Z,98816.39
2023-04-25T20:56:37.837Z,98815.11
2023-04-25T20:59:04.717Z,98817.51
2023-04-25T21:01:31.332Z,98820.53
2023-04-25T21:03:58.405Z,98821.89
2023-04-25T21:06:25.523Z,98826.66
2023-04-25T21:08:52.461Z,98826.80
2023-04-25T21:11:19.668Z,98825.09
2023-04-25T21:13:46.523Z,98826.10
2023-04-25T21:16:13.183Z,98824.89
2023-04-25T21:18:39.808Z,98827.66
2023-04-25T21:21:06.496Z,98825.91
2023-04-25T21:23:33.329Z,98825.34
2023-04-25T21:25:59.922Z,98823.69
2023-04-25T21:28:26.575Z,98820.05
2023-04-25T21:30:53.279Z,98824.68
2023-04-25T21:33:19.967Z,98823.94
2023-04-25T21:35:46.512Z,98826.83
2023-04-25T21:38:13.120Z,98822.48
2023-04-25T21:40:39.958Z,98824.25
2023-04-25T21:43:06.537Z,98823.40
2023-04-25T21:45:33.223Z,98821.44
2023-04-25T21:48:00.049Z,98821.85
2023-04-25T21:50:27.511Z,98820.04
2023-04-25T21:52:58.802Z,98820.41
2023-04-25T21:55:26.646Z,98818.70
2023-04-25T21:57:53.460Z,98818.46
2023-04-25T22:00:21.366Z,98818.31
2023-04-25T22:02:48.489Z,98818.15
2023-04-25T22:05:15.446Z,98814.29
2023-04-25T22:07:42.269Z,98815.38
2023-04-25T22:10:09.198Z,98809.56
2023-04-25T22:12:36.585Z,98812.05
2023-04-25T22:15:04.174Z,98816.10
2023-04-25T22:17:31.277Z,98809.75
2023-04-25T22:19:58.127Z,98809.46
2023-04-25T22:22:24.726Z,98808.79
2023-04-25T22:24:51.358Z,98808.98
2023-04-25T22:27:18.507Z,98804.30
2023-04-25T22:29:45.059Z,98802.93
2023-04-25T22:32:11.715Z,98799.30
2023-04-25T22:34:38.450Z,98801.63
2023-04-25T22:37:04.996Z,98798.20
2023-04-25T22:39:31.552Z,98800.98
2023-04-25T22:41:58.430Z,98801.73
2023-04-25T22:44:25.100Z,98802.27
2023-04-25T22:46:51.637Z,98801.30
2023-04-25T22:49:18.212Z,98803.73
2023-04-25T22:51:44.957Z,98804.40
2023-04-25T22:54:11.548Z,98805.27
2023-04-25T22:56:38.177Z,98806.58
2023-04-25T22:59:04.835Z,98806.91
2023-04-25T23:01:31.776Z,98805.95
2023-04-25T23:03:58.783Z,98804.65
2023-04-25T23:06:26.467Z,98802.48
2023-04-25T23:08:53.411Z,98809.00
2023-04-25T23:11:20.501Z,98806.39
2023-04-25T23:13:47.416Z,98804.50
2023-04-25T23:16:13.973Z,98806.93
2023-04-25T23:18:41.048Z,98805.83
2023-04-25T23:21:09.179Z,98803.79
2023-04-25T23:23:36.407Z,98803.64
2023-04-25T23:26:06.796Z,98806.85
2023-04-25T23:28:33.351Z,98806.29
2023-04-25T23:31:04.002Z,98805.93
2023-04-25T23:33:30.677Z,98805.20
2023-04-25T23:35:57.297Z,98803.38
2023-04-25T23:38:23.912Z,98805.64
2023-04-25T23:40:50.443Z,98800.72
2023-04-25T23:43:17.081Z,98804.10
2023-04-25T23:45:44.898Z,98800.15
2023-04-25T23:48:11.715Z,98801.95
2023-04-25T23:50:38.293Z,98801.25
2023-04-25T23:53:04.934Z,98803.98
2023-04-25T23:55:31.865Z,98801.00
2023-04-25T23:57:58.420Z,98804.23
